PWSweather.com
Personal Weather Stations
Station Observations
WAREHAM1
West Wareham, MA 02576

West Wareham, MA 02576

Lat: 41.7961059, Lon: -70.775612

Elevation: 88

Station Type: Davis Vantage Vue

http://www.gateway2capecod.com

High Low Average
Temperature 51.3°F10.7°C 23.4°F-4.8°C 35.7°F2.1°C
Dew Point 47.5°F8.6°C 17.1°F-8.3°C 28.3°F-2.1°C
Winds 4.0 mph 6.4 kmh Calm Calm 1.0 mph SW1.6 kmh SW
Wind Gusts 10.1 mph16.3 kmh -- 3.0 mph4.8 kmh
Humidity 88% 61% 74%
Pressure 30.51 in1033.2 mb 30.21 in1023.0 mb -
Precipitation 0.00 in0.0 mm - -
Hour Temp Dew Point Humidity Winds Wind Gusts Pressure Precip Precip Rate Daily Precip Total
12:09 AM 30.6°F-0.8°C 23.0°F-5.0°C 73% Calm Calm 1.0 mph1.6 kmh 30.28 in1025.4 mb 0.00 in0.0 mm 0.00 in0.0 mm 0.00 in0.0 mm
12:19 AM 30.6°F-0.8°C 23.0°F-5.0°C 73% Calm Calm 2.0 mph3.2 kmh 30.29 in1025.7 mb 0.00 in0.0 mm 0.00 in0.0 mm 0.00 in0.0 mm
12:29 AM 30.0°F-1.1°C 22.8°F-5.1°C 74% Calm Calm 0.9 mph1.4 kmh 30.29 in1025.7 mb 0.00 in0.0 mm 0.00 in0.0 mm 0.00 in0.0 mm
12:39 AM 29.7°F-1.3°C 22.5°F-5.3°C 74% Calm Calm 0.9 mph1.4 kmh 30.29 in1025.7 mb 0.00 in0.0 mm 0.00 in0.0 mm 0.00 in0.0 mm
12:49 AM 29.7°F-1.3°C 22.5°F-5.3°C 74% 0.9 mph NW1.4 kmh NW 3.0 mph4.8 kmh 30.29 in1025.7 mb 0.00 in0.0 mm 0.00 in0.0 mm 0.00 in0.0 mm
12:59 AM 29.7°F-1.3°C 22.1°F-5.5°C 73% Calm Calm 2.0 mph3.2 kmh 30.30 in1026.1 mb 0.00 in0.0 mm 0.00 in0.0 mm 0.00 in0.0 mm
01:09 AM 29.5°F-1.4°C 22.3°F-5.4°C 74% 0.9 mph NW1.4 kmh NW 2.0 mph3.2 kmh 30.29 in1025.7 mb 0.00 in0.0 mm 0.00 in0.0 mm 0.00 in0.0 mm
01:19 AM 28.9°F-1.7°C 21.7°F-5.7°C 74% Calm Calm 2.0 mph3.2 kmh 30.30 in1026.1 mb 0.00 in0.0 mm 0.00 in0.0 mm 0.00 in0.0 mm
01:29 AM 28.4°F-2.0°C 21.6°F-5.8°C 75% Calm Calm 4.0 mph6.4 kmh 30.30 in1026.1 mb 0.00 in0.0 mm 0.00 in0.0 mm 0.00 in0.0 mm
01:39 AM 28.4°F-2.0°C 21.6°F-5.8°C 75% 0.9 mph W1.4 kmh W 4.0 mph6.4 kmh 30.30 in1026.1 mb 0.00 in0.0 mm 0.00 in0.0 mm 0.00 in0.0 mm
01:49 AM 28.2°F-2.1°C 21.4°F-5.9°C 75% Calm Calm 0.9 mph1.4 kmh 30.32 in1026.8 mb 0.00 in0.0 mm 0.00 in0.0 mm 0.00 in0.0 mm
01:59 AM 28.0°F-2.2°C 21.2°F-6.0°C 75% Calm Calm 2.0 mph3.2 kmh 30.33 in1027.1 mb 0.00 in0.0 mm 0.00 in0.0 mm 0.00 in0.0 mm
02:09 AM 27.9°F-2.3°C 20.7°F-6.3°C 74% Calm Calm 2.9 mph4.7 kmh 30.33 in1027.1 mb 0.00 in0.0 mm 0.00 in0.0 mm 0.00 in0.0 mm
02:19 AM 27.7°F-2.4°C 20.5°F-6.4°C 74% Calm Calm 0.9 mph1.4 kmh 30.34 in1027.4 mb 0.00 in0.0 mm 0.00 in0.0 mm 0.00 in0.0 mm
02:29 AM 27.3°F-2.6°C 20.5°F-6.4°C 75% Calm Calm 2.0 mph3.2 kmh 30.35 in1027.8 mb 0.00 in0.0 mm 0.00 in0.0 mm 0.00 in0.0 mm
02:39 AM 27.1°F-2.7°C 19.9°F-6.7°C 74% Calm Calm 0.9 mph1.4 kmh 30.36 in1028.1 mb 0.00 in0.0 mm 0.00 in0.0 mm 0.00 in0.0 mm
02:50 AM 27.0°F-2.8°C 20.1°F-6.6°C 75% Calm Calm 0.9 mph1.4 kmh 30.36 in1028.1 mb 0.00 in0.0 mm 0.00 in0.0 mm 0.00 in0.0 mm
03:00 AM 26.4°F-3.1°C 19.6°F-6.9°C 75% Calm Calm 0.9 mph1.4 kmh 30.37 in1028.4 mb 0.00 in0.0 mm 0.00 in0.0 mm 0.00 in0.0 mm
03:10 AM 26.2°F-3.2°C 19.8°F-6.8°C 76% Calm Calm 1.0 mph1.6 kmh 30.37 in1028.4 mb 0.00 in0.0 mm 0.00 in0.0 mm 0.00 in0.0 mm
03:20 AM 26.1°F-3.3°C 19.2°F-7.1°C 75% Calm Calm -- 30.37 in1028.4 mb 0.00 in0.0 mm 0.00 in0.0 mm 0.00 in0.0 mm
03:30 AM 25.9°F-3.4°C 19.0°F-7.2°C 75% Calm Calm -- 30.38 in1028.8 mb 0.00 in0.0 mm 0.00 in0.0 mm 0.00 in0.0 mm
03:40 AM 25.9°F-3.4°C 18.5°F-7.5°C 73% Calm Calm -- 30.38 in1028.8 mb 0.00 in0.0 mm 0.00 in0.0 mm 0.00 in0.0 mm
03:50 AM 25.9°F-3.4°C 18.5°F-7.5°C 73% Calm Calm 0.9 mph1.4 kmh 30.38 in1028.8 mb 0.00 in0.0 mm 0.00 in0.0 mm 0.00 in0.0 mm
04:00 AM 25.5°F-3.6°C 18.3°F-7.6°C 74% Calm Calm -- 30.38 in1028.8 mb 0.00 in0.0 mm 0.00 in0.0 mm 0.00 in0.0 mm
04:10 AM 25.3°F-3.7°C 18.1°F-7.7°C 74% Calm Calm -- 30.38 in1028.8 mb 0.00 in0.0 mm 0.00 in0.0 mm 0.00 in0.0 mm
04:20 AM 25.2°F-3.8°C 18.3°F-7.6°C 75% Calm Calm 1.0 mph1.6 kmh 30.38 in1028.8 mb 0.00 in0.0 mm 0.00 in0.0 mm 0.00 in0.0 mm
04:30 AM 25.5°F-3.6°C 18.3°F-7.6°C 74% Calm Calm 2.0 mph3.2 kmh 30.39 in1029.1 mb 0.00 in0.0 mm 0.00 in0.0 mm 0.00 in0.0 mm
04:40 AM 25.5°F-3.6°C 18.1°F-7.7°C 73% Calm Calm 2.0 mph3.2 kmh 30.39 in1029.1 mb 0.00 in0.0 mm 0.00 in0.0 mm 0.00 in0.0 mm
04:50 AM 25.3°F-3.7°C 18.1°F-7.7°C 74% Calm Calm 0.9 mph1.4 kmh 30.40 in1029.5 mb 0.00 in0.0 mm 0.00 in0.0 mm 0.00 in0.0 mm
05:00 AM 25.2°F-3.8°C 18.0°F-7.8°C 74% Calm Calm 0.9 mph1.4 kmh 30.41 in1029.8 mb 0.00 in0.0 mm 0.00 in0.0 mm 0.00 in0.0 mm
05:10 AM 25.2°F-3.8°C 18.0°F-7.8°C 74% Calm Calm 1.0 mph1.6 kmh 30.41 in1029.8 mb 0.00 in0.0 mm 0.00 in0.0 mm 0.00 in0.0 mm
05:20 AM 25.3°F-3.7°C 18.0°F-7.8°C 73% Calm Calm 0.9 mph1.4 kmh 30.41 in1029.8 mb 0.00 in0.0 mm 0.00 in0.0 mm 0.00 in0.0 mm
05:30 AM 25.3°F-3.7°C 18.1°F-7.7°C 74% Calm Calm 0.9 mph1.4 kmh 30.42 in1030.1 mb 0.00 in0.0 mm 0.00 in0.0 mm 0.00 in0.0 mm
05:40 AM 25.2°F-3.8°C 17.8°F-7.9°C 73% Calm Calm 0.9 mph1.4 kmh 30.42 in1030.1 mb 0.00 in0.0 mm 0.00 in0.0 mm 0.00 in0.0 mm
05:50 AM 25.0°F-3.9°C 17.6°F-8.0°C 73% Calm Calm 1.0 mph1.6 kmh 30.42 in1030.1 mb 0.00 in0.0 mm 0.00 in0.0 mm 0.00 in0.0 mm
06:00 AM 24.8°F-4.0°C 17.8°F-7.9°C 74% Calm Calm 0.9 mph1.4 kmh 30.43 in1030.5 mb 0.00 in0.0 mm 0.00 in0.0 mm 0.00 in0.0 mm
06:10 AM 24.6°F-4.1°C 17.6°F-8.0°C 74% Calm Calm 0.9 mph1.4 kmh 30.43 in1030.5 mb 0.00 in0.0 mm 0.00 in0.0 mm 0.00 in0.0 mm
06:20 AM 24.6°F-4.1°C 17.6°F-8.0°C 74% Calm Calm -- 30.44 in1030.8 mb 0.00 in0.0 mm 0.00 in0.0 mm 0.00 in0.0 mm
06:30 AM 24.4°F-4.2°C 17.4°F-8.1°C 74% Calm Calm -- 30.44 in1030.8 mb 0.00 in0.0 mm 0.00 in0.0 mm 0.00 in0.0 mm
06:40 AM 24.1°F-4.4°C 17.2°F-8.2°C 75% Calm Calm -- 30.45 in1031.2 mb 0.00 in0.0 mm 0.00 in0.0 mm 0.00 in0.0 mm
06:50 AM 24.1°F-4.4°C 17.6°F-8.0°C 76% Calm Calm -- 30.44 in1030.8 mb 0.00 in0.0 mm 0.00 in0.0 mm 0.00 in0.0 mm
07:00 AM 23.7°F-4.6°C 17.6°F-8.0°C 77% Calm Calm -- 30.45 in1031.2 mb 0.00 in0.0 mm 0.00 in0.0 mm 0.00 in0.0 mm
07:10 AM 23.9°F-4.5°C 17.4°F-8.1°C 76% Calm Calm -- 30.46 in1031.5 mb 0.00 in0.0 mm 0.00 in0.0 mm 0.00 in0.0 mm
07:20 AM 23.9°F-4.5°C 17.1°F-8.3°C 75% Calm Calm 0.9 mph1.4 kmh 30.45 in1031.2 mb 0.00 in0.0 mm 0.00 in0.0 mm 0.00 in0.0 mm
07:30 AM 23.7°F-4.6°C 17.2°F-8.2°C 76% Calm Calm -- 30.46 in1031.5 mb 0.00 in0.0 mm 0.00 in0.0 mm 0.00 in0.0 mm
07:40 AM 23.7°F-4.6°C 17.2°F-8.2°C 76% Calm Calm -- 30.46 in1031.5 mb 0.00 in0.0 mm 0.00 in0.0 mm 0.00 in0.0 mm
07:50 AM 23.5°F-4.7°C 17.4°F-8.1°C 77% Calm Calm -- 30.47 in1031.8 mb 0.00 in0.0 mm 0.00 in0.0 mm 0.00 in0.0 mm
08:00 AM 23.4°F-4.8°C 17.6°F-8.0°C 78% Calm Calm -- 30.47 in1031.8 mb 0.00 in0.0 mm 0.00 in0.0 mm 0.00 in0.0 mm
08:10 AM 23.7°F-4.6°C 17.6°F-8.0°C 77% Calm Calm 0.9 mph1.4 kmh 30.48 in1032.2 mb 0.00 in0.0 mm 0.00 in0.0 mm 0.00 in0.0 mm
08:20 AM 24.1°F-4.4°C 18.0°F-7.8°C 77% Calm Calm 0.9 mph1.4 kmh 30.49 in1032.5 mb 0.00 in0.0 mm 0.00 in0.0 mm 0.00 in0.0 mm
08:30 AM 24.6°F-4.1°C 18.1°F-7.7°C 76% Calm Calm -- 30.49 in1032.5 mb 0.00 in0.0 mm 0.00 in0.0 mm 0.00 in0.0 mm
08:40 AM 25.2°F-3.8°C 18.3°F-7.6°C 75% Calm Calm 2.0 mph3.2 kmh 30.50 in1032.8 mb 0.00 in0.0 mm 0.00 in0.0 mm 0.00 in0.0 mm
08:50 AM 25.9°F-3.4°C 18.7°F-7.4°C 74% Calm Calm 0.9 mph1.4 kmh 30.50 in1032.8 mb 0.00 in0.0 mm 0.00 in0.0 mm 0.00 in0.0 mm
09:00 AM 26.2°F-3.2°C 18.9°F-7.3°C 73% Calm Calm 0.9 mph1.4 kmh 30.50 in1032.8 mb 0.00 in0.0 mm 0.00 in0.0 mm 0.00 in0.0 mm
09:10 AM 26.8°F-2.9°C 19.2°F-7.1°C 73% Calm Calm 2.0 mph3.2 kmh 30.50 in1032.8 mb 0.00 in0.0 mm 0.00 in0.0 mm 0.00 in0.0 mm
09:20 AM 27.3°F-2.6°C 19.6°F-6.9°C 72% Calm Calm 0.9 mph1.4 kmh 30.50 in1032.8 mb 0.00 in0.0 mm 0.00 in0.0 mm 0.00 in0.0 mm
09:30 AM 27.9°F-2.3°C 19.8°F-6.8°C 71% Calm Calm 3.0 mph4.8 kmh 30.51 in1033.2 mb 0.00 in0.0 mm 0.00 in0.0 mm 0.00 in0.0 mm
09:40 AM 28.4°F-2.0°C 20.1°F-6.6°C 71% Calm Calm 2.0 mph3.2 kmh 30.50 in1032.8 mb 0.00 in0.0 mm 0.00 in0.0 mm 0.00 in0.0 mm
09:50 AM 28.8°F-1.8°C 20.5°F-6.4°C 71% Calm Calm 3.0 mph4.8 kmh 30.50 in1032.8 mb 0.00 in0.0 mm 0.00 in0.0 mm 0.00 in0.0 mm
10:00 AM 29.5°F-1.4°C 21.2°F-6.0°C 71% 0.9 mph E1.4 kmh E 2.9 mph4.7 kmh 30.51 in1033.2 mb 0.00 in0.0 mm 0.00 in0.0 mm 0.00 in0.0 mm
10:10 AM 30.6°F-0.8°C 22.6°F-5.2°C 72% Calm Calm 2.0 mph3.2 kmh 30.51 in1033.2 mb 0.00 in0.0 mm 0.00 in0.0 mm 0.00 in0.0 mm
10:20 AM 30.9°F-0.6°C 22.6°F-5.2°C 71% Calm Calm 2.0 mph3.2 kmh 30.51 in1033.2 mb 0.00 in0.0 mm 0.00 in0.0 mm 0.00 in0.0 mm
10:30 AM 31.3°F-0.4°C 23.0°F-5.0°C 71% Calm Calm 2.9 mph4.7 kmh 30.51 in1033.2 mb 0.00 in0.0 mm 0.00 in0.0 mm 0.00 in0.0 mm
10:40 AM 32.0°F0.0°C 24.1°F-4.4°C 72% 0.9 mph NE1.4 kmh NE 2.9 mph4.7 kmh 30.51 in1033.2 mb 0.00 in0.0 mm 0.00 in0.0 mm 0.00 in0.0 mm
10:50 AM 32.5°F0.3°C 23.9°F-4.5°C 70% Calm Calm 2.0 mph3.2 kmh 30.51 in1033.2 mb 0.00 in0.0 mm 0.00 in0.0 mm 0.00 in0.0 mm
11:00 AM 33.4°F0.8°C 24.8°F-4.0°C 70% Calm Calm 2.0 mph3.2 kmh 30.51 in1033.2 mb 0.00 in0.0 mm 0.00 in0.0 mm 0.00 in0.0 mm
11:10 AM 34.2°F1.2°C 25.3°F-3.7°C 70% Calm Calm 2.0 mph3.2 kmh 30.50 in1032.8 mb 0.00 in0.0 mm 0.00 in0.0 mm 0.00 in0.0 mm
11:20 AM 35.2°F1.8°C 26.1°F-3.3°C 69% Calm Calm 2.0 mph3.2 kmh 30.50 in1032.8 mb 0.00 in0.0 mm 0.00 in0.0 mm 0.00 in0.0 mm
11:30 AM 35.8°F2.1°C 26.2°F-3.2°C 68% Calm Calm 3.0 mph4.8 kmh 30.50 in1032.8 mb 0.00 in0.0 mm 0.00 in0.0 mm 0.00 in0.0 mm
11:40 AM 36.3°F2.4°C 26.4°F-3.1°C 67% 0.9 mph SW1.4 kmh SW 3.0 mph4.8 kmh 30.49 in1032.5 mb 0.00 in0.0 mm 0.00 in0.0 mm 0.00 in0.0 mm
11:50 AM 36.7°F2.6°C 26.4°F-3.1°C 66% 0.9 mph SE1.4 kmh SE 4.0 mph6.4 kmh 30.48 in1032.2 mb 0.00 in0.0 mm 0.00 in0.0 mm 0.00 in0.0 mm
12:00 PM 37.0°F2.8°C 26.8°F-2.9°C 66% 0.9 mph SSW1.4 kmh SSW 4.0 mph6.4 kmh 30.48 in1032.2 mb 0.00 in0.0 mm 0.00 in0.0 mm 0.00 in0.0 mm
12:10 PM 37.4°F3.0°C 26.8°F-2.9°C 65% 2.0 mph SE3.2 kmh SE 4.9 mph7.9 kmh 30.47 in1031.8 mb 0.00 in0.0 mm 0.00 in0.0 mm 0.00 in0.0 mm
12:20 PM 37.6°F3.1°C 27.0°F-2.8°C 65% 2.0 mph S3.2 kmh S 4.9 mph7.9 kmh 30.47 in1031.8 mb 0.00 in0.0 mm 0.00 in0.0 mm 0.00 in0.0 mm
12:30 PM 37.6°F3.1°C 26.6°F-3.0°C 64% 2.0 mph E3.2 kmh E 8.1 mph13.0 kmh 30.47 in1031.8 mb 0.00 in0.0 mm 0.00 in0.0 mm 0.00 in0.0 mm
12:40 PM 38.5°F3.6°C 27.3°F-2.6°C 64% 0.9 mph SSW1.4 kmh SSW 5.0 mph8.0 kmh 30.46 in1031.5 mb 0.00 in0.0 mm 0.00 in0.0 mm 0.00 in0.0 mm
12:50 PM 38.8°F3.8°C 27.3°F-2.6°C 63% 0.9 mph SSW1.4 kmh SSW 5.0 mph8.0 kmh 30.45 in1031.2 mb 0.00 in0.0 mm 0.00 in0.0 mm 0.00 in0.0 mm
01:00 PM 39.4°F4.1°C 27.1°F-2.7°C 61% 0.9 mph S1.4 kmh S 5.0 mph8.0 kmh 30.45 in1031.2 mb 0.00 in0.0 mm 0.00 in0.0 mm 0.00 in0.0 mm
01:10 PM 39.7°F4.3°C 27.3°F-2.6°C 61% 0.9 mph WSW1.4 kmh WSW 5.0 mph8.0 kmh 30.45 in1031.2 mb 0.00 in0.0 mm 0.00 in0.0 mm 0.00 in0.0 mm
01:20 PM 39.9°F4.4°C 28.4°F-2.0°C 63% 2.0 mph SSW3.2 kmh SSW 6.0 mph9.7 kmh 30.44 in1030.8 mb 0.00 in0.0 mm 0.00 in0.0 mm 0.00 in0.0 mm
01:30 PM 40.3°F4.6°C 28.2°F-2.1°C 62% 2.0 mph SE3.2 kmh SE 4.0 mph6.4 kmh 30.44 in1030.8 mb 0.00 in0.0 mm 0.00 in0.0 mm 0.00 in0.0 mm
01:40 PM 40.5°F4.7°C 28.9°F-1.7°C 63% 0.9 mph SW1.4 kmh SW 2.9 mph4.7 kmh 30.44 in1030.8 mb 0.00 in0.0 mm 0.00 in0.0 mm 0.00 in0.0 mm
01:50 PM 40.6°F4.8°C 30.2°F-1.0°C 66% 0.9 mph SW1.4 kmh SW 2.9 mph4.7 kmh 30.44 in1030.8 mb 0.00 in0.0 mm 0.00 in0.0 mm 0.00 in0.0 mm
02:00 PM 40.8°F4.9°C 28.8°F-1.8°C 62% 0.9 mph SW1.4 kmh SW 4.0 mph6.4 kmh 30.44 in1030.8 mb 0.00 in0.0 mm 0.00 in0.0 mm 0.00 in0.0 mm
02:10 PM 40.8°F4.9°C 28.4°F-2.0°C 61% 2.0 mph S3.2 kmh S 5.0 mph8.0 kmh 30.43 in1030.5 mb 0.00 in0.0 mm 0.00 in0.0 mm 0.00 in0.0 mm
02:20 PM 40.6°F4.8°C 29.5°F-1.4°C 64% 2.0 mph SW3.2 kmh SW 4.9 mph7.9 kmh 30.42 in1030.1 mb 0.00 in0.0 mm 0.00 in0.0 mm 0.00 in0.0 mm
02:30 PM 41.0°F5.0°C 29.3°F-1.5°C 63% 0.9 mph SSW1.4 kmh SSW 7.0 mph11.3 kmh 30.42 in1030.1 mb 0.00 in0.0 mm 0.00 in0.0 mm 0.00 in0.0 mm
02:40 PM 40.8°F4.9°C 29.1°F-1.6°C 63% 0.9 mph WSW1.4 kmh WSW 4.9 mph7.9 kmh 30.42 in1030.1 mb 0.00 in0.0 mm 0.00 in0.0 mm 0.00 in0.0 mm
02:50 PM 41.4°F5.2°C 29.7°F-1.3°C 63% 0.9 mph SW1.4 kmh SW 5.0 mph8.0 kmh 30.41 in1029.8 mb 0.00 in0.0 mm 0.00 in0.0 mm 0.00 in0.0 mm
03:00 PM 41.4°F5.2°C 29.3°F-1.5°C 62% 2.0 mph SSW3.2 kmh SSW 4.9 mph7.9 kmh 30.41 in1029.8 mb 0.00 in0.0 mm 0.00 in0.0 mm 0.00 in0.0 mm
03:10 PM 41.2°F5.1°C 29.5°F-1.4°C 63% 2.0 mph SW3.2 kmh SW 6.0 mph9.7 kmh 30.40 in1029.5 mb 0.00 in0.0 mm 0.00 in0.0 mm 0.00 in0.0 mm
03:20 PM 41.4°F5.2°C 29.7°F-1.3°C 63% 2.0 mph S3.2 kmh S 6.0 mph9.7 kmh 30.41 in1029.8 mb 0.00 in0.0 mm 0.00 in0.0 mm 0.00 in0.0 mm
03:30 PM 41.4°F5.2°C 30.6°F-0.8°C 65% 2.9 mph S4.7 kmh S 7.0 mph11.3 kmh 30.41 in1029.8 mb 0.00 in0.0 mm 0.00 in0.0 mm 0.00 in0.0 mm
03:40 PM 41.9°F5.5°C 30.9°F-0.6°C 65% 2.0 mph SSW3.2 kmh SSW 4.9 mph7.9 kmh 30.41 in1029.8 mb 0.00 in0.0 mm 0.00 in0.0 mm 0.00 in0.0 mm
03:50 PM 41.7°F5.4°C 31.6°F-0.2°C 67% 2.0 mph S3.2 kmh S 6.0 mph9.7 kmh 30.40 in1029.5 mb 0.00 in0.0 mm 0.00 in0.0 mm 0.00 in0.0 mm
04:00 PM 41.5°F5.3°C 31.5°F-0.3°C 67% 2.0 mph SSW3.2 kmh SSW 7.0 mph11.3 kmh 30.40 in1029.5 mb 0.00 in0.0 mm 0.00 in0.0 mm 0.00 in0.0 mm
04:10 PM 41.4°F5.2°C 31.3°F-0.4°C 67% 2.0 mph SW3.2 kmh SW 6.9 mph11.1 kmh 30.40 in1029.5 mb 0.00 in0.0 mm 0.00 in0.0 mm 0.00 in0.0 mm
04:20 PM 41.4°F5.2°C 31.6°F-0.2°C 68% 0.9 mph SSW1.4 kmh SSW 4.9 mph7.9 kmh 30.40 in1029.5 mb 0.00 in0.0 mm 0.00 in0.0 mm 0.00 in0.0 mm
04:30 PM 41.5°F5.3°C 31.5°F-0.3°C 67% 2.0 mph S3.2 kmh S 8.0 mph12.9 kmh 30.40 in1029.5 mb 0.00 in0.0 mm 0.00 in0.0 mm 0.00 in0.0 mm
04:40 PM 41.5°F5.3°C 31.5°F-0.3°C 67% 2.0 mph SSW3.2 kmh SSW 4.9 mph7.9 kmh 30.40 in1029.5 mb 0.00 in0.0 mm 0.00 in0.0 mm 0.00 in0.0 mm
04:50 PM 41.2°F5.1°C 31.5°F-0.3°C 68% 0.9 mph SSW1.4 kmh SSW 5.0 mph8.0 kmh 30.40 in1029.5 mb 0.00 in0.0 mm 0.00 in0.0 mm 0.00 in0.0 mm
05:00 PM 40.6°F4.8°C 31.3°F-0.4°C 69% Calm Calm 2.0 mph3.2 kmh 30.40 in1029.5 mb 0.00 in0.0 mm 0.00 in0.0 mm 0.00 in0.0 mm
05:10 PM 40.6°F4.8°C 31.3°F-0.4°C 69% 2.0 mph SSW3.2 kmh SSW 4.0 mph6.4 kmh 30.40 in1029.5 mb 0.00 in0.0 mm 0.00 in0.0 mm 0.00 in0.0 mm
05:20 PM 40.5°F4.7°C 31.5°F-0.3°C 70% 0.9 mph SSW1.4 kmh SSW 5.0 mph8.0 kmh 30.40 in1029.5 mb 0.00 in0.0 mm 0.00 in0.0 mm 0.00 in0.0 mm
05:30 PM 40.1°F4.5°C 31.1°F-0.5°C 70% 0.9 mph SSW1.4 kmh SSW 4.0 mph6.4 kmh 30.40 in1029.5 mb 0.00 in0.0 mm 0.00 in0.0 mm 0.00 in0.0 mm
05:40 PM 39.9°F4.4°C 31.3°F-0.4°C 71% 0.9 mph SSW1.4 kmh SSW 2.9 mph4.7 kmh 30.40 in1029.5 mb 0.00 in0.0 mm 0.00 in0.0 mm 0.00 in0.0 mm
05:50 PM 39.6°F4.2°C 31.3°F-0.4°C 72% Calm Calm 2.0 mph3.2 kmh 30.40 in1029.5 mb 0.00 in0.0 mm 0.00 in0.0 mm 0.00 in0.0 mm
06:00 PM 39.4°F4.1°C 31.5°F-0.3°C 73% Calm Calm 2.0 mph3.2 kmh 30.39 in1029.1 mb 0.00 in0.0 mm 0.00 in0.0 mm 0.00 in0.0 mm
06:10 PM 38.8°F3.8°C 31.3°F-0.4°C 74% Calm Calm 0.9 mph1.4 kmh 30.38 in1028.8 mb 0.00 in0.0 mm 0.00 in0.0 mm 0.00 in0.0 mm
06:20 PM 38.8°F3.8°C 31.3°F-0.4°C 74% Calm Calm 0.9 mph1.4 kmh 30.38 in1028.8 mb 0.00 in0.0 mm 0.00 in0.0 mm 0.00 in0.0 mm
06:30 PM 38.7°F3.7°C 31.8°F-0.1°C 76% Calm Calm 1.0 mph1.6 kmh 30.38 in1028.8 mb 0.00 in0.0 mm 0.00 in0.0 mm 0.00 in0.0 mm
06:40 PM 38.5°F3.6°C 31.8°F-0.1°C 77% Calm Calm 0.9 mph1.4 kmh 30.38 in1028.8 mb 0.00 in0.0 mm 0.00 in0.0 mm 0.00 in0.0 mm
06:50 PM 38.5°F3.6°C 32.2°F0.1°C 78% Calm Calm 0.9 mph1.4 kmh 30.37 in1028.4 mb 0.00 in0.0 mm 0.00 in0.0 mm 0.00 in0.0 mm
07:00 PM 38.7°F3.7°C 32.7°F0.4°C 79% Calm Calm 0.9 mph1.4 kmh 30.37 in1028.4 mb 0.00 in0.0 mm 0.00 in0.0 mm 0.00 in0.0 mm
07:10 PM 38.8°F3.8°C 33.3°F0.7°C 80% Calm Calm 2.0 mph3.2 kmh 30.37 in1028.4 mb 0.00 in0.0 mm 0.00 in0.0 mm 0.00 in0.0 mm
07:20 PM 39.0°F3.9°C 33.6°F0.9°C 81% Calm Calm 0.9 mph1.4 kmh 30.37 in1028.4 mb 0.00 in0.0 mm 0.00 in0.0 mm 0.00 in0.0 mm
07:30 PM 39.6°F4.2°C 34.5°F1.4°C 82% Calm Calm 2.0 mph3.2 kmh 30.36 in1028.1 mb 0.00 in0.0 mm 0.00 in0.0 mm 0.00 in0.0 mm
07:40 PM 40.3°F4.6°C 35.6°F2.0°C 83% 0.9 mph SSW1.4 kmh SSW 4.0 mph6.4 kmh 30.36 in1028.1 mb 0.00 in0.0 mm 0.00 in0.0 mm 0.00 in0.0 mm
07:50 PM 41.4°F5.2°C 36.5°F2.5°C 83% 2.0 mph SSW3.2 kmh SSW 5.0 mph8.0 kmh 30.36 in1028.1 mb 0.00 in0.0 mm 0.00 in0.0 mm 0.00 in0.0 mm
08:00 PM 41.9°F5.5°C 37.4°F3.0°C 84% 0.9 mph SSW1.4 kmh SSW 2.9 mph4.7 kmh 30.35 in1027.8 mb 0.00 in0.0 mm 0.00 in0.0 mm 0.00 in0.0 mm
08:10 PM 42.3°F5.7°C 37.8°F3.2°C 84% 0.9 mph S1.4 kmh S 2.0 mph3.2 kmh 30.35 in1027.8 mb 0.00 in0.0 mm 0.00 in0.0 mm 0.00 in0.0 mm
08:20 PM 42.6°F5.9°C 38.5°F3.6°C 85% 0.9 mph S1.4 kmh S 6.0 mph9.7 kmh 30.35 in1027.8 mb 0.00 in0.0 mm 0.00 in0.0 mm 0.00 in0.0 mm
08:30 PM 43.3°F6.3°C 39.2°F4.0°C 85% 0.9 mph SSW1.4 kmh SSW 4.0 mph6.4 kmh 30.35 in1027.8 mb 0.00 in0.0 mm 0.00 in0.0 mm 0.00 in0.0 mm
08:40 PM 43.9°F6.6°C 39.7°F4.3°C 85% 2.0 mph SSW3.2 kmh SSW 5.0 mph8.0 kmh 30.35 in1027.8 mb 0.00 in0.0 mm 0.00 in0.0 mm 0.00 in0.0 mm
08:50 PM 44.2°F6.8°C 40.1°F4.5°C 85% 2.0 mph SSW3.2 kmh SSW 4.0 mph6.4 kmh 30.34 in1027.4 mb 0.00 in0.0 mm 0.00 in0.0 mm 0.00 in0.0 mm
09:00 PM 44.4°F6.9°C 40.3°F4.6°C 85% 0.9 mph SSW1.4 kmh SSW 4.0 mph6.4 kmh 30.34 in1027.4 mb 0.00 in0.0 mm 0.00 in0.0 mm 0.00 in0.0 mm
09:10 PM 44.4°F6.9°C 40.3°F4.6°C 85% 0.9 mph SSW1.4 kmh SSW 2.9 mph4.7 kmh 30.34 in1027.4 mb 0.00 in0.0 mm 0.00 in0.0 mm 0.00 in0.0 mm
09:20 PM 45.0°F7.2°C 41.0°F5.0°C 86% 2.0 mph SW3.2 kmh SW 4.0 mph6.4 kmh 30.33 in1027.1 mb 0.00 in0.0 mm 0.00 in0.0 mm 0.00 in0.0 mm
09:30 PM 45.3°F7.4°C 41.7°F5.4°C 87% 0.9 mph SSW1.4 kmh SSW 3.0 mph4.8 kmh 30.32 in1026.8 mb 0.00 in0.0 mm 0.00 in0.0 mm 0.00 in0.0 mm
09:40 PM 45.3°F7.4°C 41.7°F5.4°C 87% 0.9 mph S1.4 kmh S 2.9 mph4.7 kmh 30.32 in1026.8 mb 0.00 in0.0 mm 0.00 in0.0 mm 0.00 in0.0 mm
09:50 PM 46.0°F7.8°C 42.6°F5.9°C 88% 2.0 mph SSW3.2 kmh SSW 7.0 mph11.3 kmh 30.32 in1026.8 mb 0.00 in0.0 mm 0.00 in0.0 mm 0.00 in0.0 mm
10:01 PM 46.6°F8.1°C 43.0°F6.1°C 87% 2.0 mph SSW3.2 kmh SSW 4.9 mph7.9 kmh 30.31 in1026.4 mb 0.00 in0.0 mm 0.00 in0.0 mm 0.00 in0.0 mm
10:11 PM 46.9°F8.3°C 43.3°F6.3°C 87% 2.0 mph SSW3.2 kmh SSW 4.0 mph6.4 kmh 30.31 in1026.4 mb 0.00 in0.0 mm 0.00 in0.0 mm 0.00 in0.0 mm
10:21 PM 47.3°F8.5°C 43.3°F6.3°C 86% 2.0 mph S3.2 kmh S 5.0 mph8.0 kmh 30.31 in1026.4 mb 0.00 in0.0 mm 0.00 in0.0 mm 0.00 in0.0 mm
10:31 PM 47.5°F8.6°C 43.5°F6.4°C 86% 0.9 mph SSW1.4 kmh SSW 2.9 mph4.7 kmh 30.30 in1026.1 mb 0.00 in0.0 mm 0.00 in0.0 mm 0.00 in0.0 mm
10:41 PM 48.0°F8.9°C 44.1°F6.7°C 86% 2.0 mph SSW3.2 kmh SSW 5.0 mph8.0 kmh 30.30 in1026.1 mb 0.00 in0.0 mm 0.00 in0.0 mm 0.00 in0.0 mm
10:51 PM 48.6°F9.2°C 44.2°F6.8°C 85% 2.9 mph SSW4.7 kmh SSW 6.9 mph11.1 kmh 30.29 in1025.7 mb 0.00 in0.0 mm 0.00 in0.0 mm 0.00 in0.0 mm
11:01 PM 49.1°F9.5°C 44.8°F7.1°C 85% 2.9 mph S4.7 kmh S 6.9 mph11.1 kmh 30.28 in1025.4 mb 0.00 in0.0 mm 0.00 in0.0 mm 0.00 in0.0 mm
11:11 PM 49.3°F9.6°C 45.0°F7.2°C 85% 2.9 mph SSW4.7 kmh SSW 6.9 mph11.1 kmh 30.28 in1025.4 mb 0.00 in0.0 mm 0.00 in0.0 mm 0.00 in0.0 mm
11:21 PM 49.6°F9.8°C 45.3°F7.4°C 85% 2.9 mph SSW4.7 kmh SSW 6.0 mph9.7 kmh 30.27 in1025.1 mb 0.00 in0.0 mm 0.00 in0.0 mm 0.00 in0.0 mm
11:31 PM 49.8°F9.9°C 45.5°F7.5°C 85% 2.9 mph SW4.7 kmh SW 6.0 mph9.7 kmh 30.27 in1025.1 mb 0.00 in0.0 mm 0.00 in0.0 mm 0.00 in0.0 mm
11:41 PM 49.8°F9.9°C 45.5°F7.5°C 85% 2.9 mph S4.7 kmh S 9.0 mph14.5 kmh 30.26 in1024.7 mb 0.00 in0.0 mm 0.00 in0.0 mm 0.00 in0.0 mm
11:51 PM 50.4°F10.2°C 46.0°F7.8°C 85% 4.0 mph SW6.4 kmh SW 8.1 mph13.0 kmh 30.26 in1024.7 mb 0.00 in0.0 mm 0.00 in0.0 mm 0.00 in0.0 mm